Jump to content


AMERICAN AIRLINES FLIGHT AA2515 FLOWN ON 08-01-2017 BY CAPTAIN JIM BOERMAN

Pilot StatsCaptain Jim Boerman (LDP136) • 4,511.1 total hours • 1,375 total flights [View Logbook]
FLIGHT DETAILS
StatusReceived and approved on 2017-08-01 at 11:08:24
Origin AirportMiami Intl (KMIA) • Miami, Florida, United States (8 feet MSL)
Filed Flight PlanKMIA LUVLY BR49V JUNUR Y589 ALBBE UA636 PTA UA554 KODIX UL212 CDO M597 GABIM MDLR
Destination AirportCasa De Campo Intl (MDLR) • La Romana, Dominican Republic (240 feet MSL)
Alternate AirportJose F. Pena Gomez Intl (MDSD) • Santo Domingo, Dominican Republic (58 feet MSL)
AirlineAmerican Airlines
AircraftBoeing 737-800 | Winglets (73H / B737-800)
FS Aircraft UsedBoeing 737-823 American Airlines N959NN
Cruising AltitudeFL350
Distance Flown771 nautical miles
Passengers Onboard57 passengers (35.19% full)
DEPARTURE DETAILS
Time Out08:48:07
Taxi Data143,205 lbs total with 19,630 lbs of fuel onboard
Takeoff Data09:02:30 (14 minutes after leaving gate/ramp) • 142,554 lbs total • 11° pitch at 150 knots
Departure METARKMIA 011153Z 18005KT 10SM FEW025 SCT120 BKN140 OVC200 27/24 A3001 RMK AO2 SLP163 60005 70101 T02670244 10272 20250 51012
ARRIVAL DETAILS
Landing Data11:03:57 • 131,543 lbs total • 3° pitch doing 139 knots at a rate of -104.58 feet/minute with 7,523 lbs of fuel onboard
Time In11:13:34 (10 minutes after landing)
Ramp Weight131,098 lbs total
Total Fuel Used12,107 lbs
Total Block Time02:25:19 (2.4 hours) while 24 minutes were spent on the ground
Arrival METARMDLR 011500Z 10008KT 9999 SCT020 SCT300 31/26 Q1018
MISCELLANEOUS DETAILS
LiveDISPATCH Version4.8.3.1
FS Version
FSUIPC Version5.10
OS VersionWindows 7 32-bit
Screen Resolution1920 x 1080
Pilot's CommentsNo Comments Reported
FLIGHT MAP